KOCW/OCW METAR and TAF weather

Enter ICAO airport designator
Station Type Date Time Source
KOCW METAR 2022/12/08 13:35 UTC NOAA

KOCW 081335Z AUTO 01008KT 10SM OVC011 17/14 A3022 RMK AO2 T01650144


Station Type Date Time Source
KOCW Decoded METAR 2022/12/08 13:35 UTC NOAA

Washington, Warren Field Airport, NC, United States (KOCW) 35-34-14N 077-02-59W
Dec 08, 2022 - 08:35 AM EST / 2022.12.08 1335 UTC
Wind: from the N (010 degrees) at 9 MPH (8 KT):0
Visibility: 10 mile(s):0
Sky conditions: overcast
Temperature: 61.7 F (16.5 C)
Dew Point: 57.9 F (14.4 C)
Relative Humidity: 87%
Pressure (altimeter): 30.22 in. Hg (1023 hPa)
ob: KOCW 081335Z AUTO 01008KT 10SM OVC011 17/14 A3022 RMK AO2 T01650144
cycle: 13

Station Type Date Time Source
KOCW TAF UTC NOAA

Error!

Example: see airport list